Time;durP1;ratioP1;P1;durP2;ratioP2;P2;SDS_P1;SDS_P2;PMS_P1;PMS_P2;Temp;Humidity;BMP_temperature;BMP_pressure;BME280_temperature;BME280_humidity;BME280_pressure;Samples;Min_cycle;Max_cycle;Signal;HPM_P1;HPM_P2
2023/09/16 00:01:29;;;;;;;11.20;9.40;;;;;;;16.66;94.18;100539.50;106215;1256;68210;-76
2023/09/16 00:03:56;;;;;;;12.00;9.50;;;;;;;16.69;93.97;100537.72;105903;1254;71042;-77
2023/09/16 00:06:24;;;;;;;10.00;9.00;;;;;;;16.72;93.84;100537.29;106021;1256;61076;-77
2023/09/16 00:08:51;;;;;;;11.70;9.90;;;;;;;16.69;93.97;100536.67;106219;1256;61339;-76
2023/09/16 00:11:21;;;;;;;11.10;9.80;;;;;;;16.65;94.01;100540.77;106043;1258;72539;-73
2023/09/16 00:13:48;;;;;;;13.50;10.10;;;;;;;16.68;93.74;100541.30;105480;1259;70315;-74
2023/09/16 00:16:15;;;;;;;13.60;11.70;;;;;;;16.69;93.43;100542.59;105243;1256;71346;-76
2023/09/16 00:18:43;;;;;;;13.40;11.90;;;;;;;16.63;93.46;100546.04;105693;1256;60528;-75
2023/09/16 00:21:11;;;;;;;16.80;11.70;;;;;;;16.55;93.62;100541.72;105833;1255;60636;-76
2023/09/16 00:23:38;;;;;;;12.20;10.80;;;;;;;16.55;93.59;100544.60;105821;1255;72883;-76
2023/09/16 00:26:05;;;;;;;16.80;10.70;;;;;;;16.57;93.52;100549.36;105785;1257;70823;-75
2023/09/16 00:28:35;;;;;;;13.00;11.00;;;;;;;16.56;93.68;100549.82;105725;1256;72659;-75
2023/09/16 00:31:06;;;;;;;12.60;11.00;;;;;;;16.53;93.88;100552.29;105777;1259;60494;-78
2023/09/16 00:33:33;;;;;;;14.20;10.50;;;;;;;16.51;93.61;100552.52;105946;1263;60443;-74
2023/09/16 00:36:01;;;;;;;11.50;10.30;;;;;;;16.55;93.40;100555.45;105999;1254;73904;-78
2023/09/16 00:38:28;;;;;;;11.40;10.20;;;;;;;16.58;93.22;100559.38;106368;1258;68705;-76
2023/09/16 00:40:56;;;;;;;13.00;10.70;;;;;;;16.56;93.28;100557.86;107377;1255;72687;-78
2023/09/16 00:43:23;;;;;;;13.30;10.60;;;;;;;16.51;93.43;100559.51;108432;1256;60474;-73
2023/09/16 00:45:51;;;;;;;11.70;10.50;;;;;;;16.54;93.30;100567.33;107929;1258;60690;-76
2023/09/16 00:48:18;;;;;;;12.10;9.80;;;;;;;16.58;93.02;100565.85;105801;1254;72047;-76
2023/09/16 00:50:46;;;;;;;12.10;10.90;;;;;;;16.55;92.96;100565.72;105887;1256;70758;-76
2023/09/16 00:53:13;;;;;;;12.70;10.10;;;;;;;16.50;93.28;100573.39;105901;1256;72436;-77
2023/09/16 00:55:41;;;;;;;15.00;9.90;;;;;;;16.54;93.30;100575.45;105776;1256;63383;-74
2023/09/16 00:58:10;;;;;;;11.00;9.90;;;;;;;16.59;93.10;100577.84;105805;1254;60528;-74
2023/09/16 01:00:38;;;;;;;12.70;11.40;;;;;;;16.59;93.11;100581.60;105834;1255;74205;-73
2023/09/16 01:03:06;;;;;;;12.60;11.10;;;;;;;16.57;93.22;100579.25;105085;1254;70645;-76
2023/09/16 01:05:34;;;;;;;12.70;10.90;;;;;;;16.57;92.86;100578.96;105320;1256;72710;-74
2023/09/16 01:08:04;;;;;;;13.90;11.90;;;;;;;16.58;92.78;100584.05;105691;1260;60508;-75
2023/09/16 01:10:32;;;;;;;16.50;11.90;;;;;;;16.53;93.02;100586.48;105998;1256;60325;-73
2023/09/16 01:13:00;;;;;;;14.00;11.70;;;;;;;16.47;93.22;100587.13;105793;1254;72844;-73
2023/09/16 01:15:31;;;;;;;14.60;11.50;;;;;;;16.49;92.92;100590.36;105726;1254;69207;-74
2023/09/16 01:18:23;;;;;;;14.70;12.10;;;;;;;16.49;93.18;100594.38;105371;1253;71351;-75
2023/09/16 01:20:50;;;;;;;16.50;11.90;;;;;;;16.45;93.51;100594.70;105360;1259;60464;-75
2023/09/16 01:23:18;;;;;;;17.10;12.90;;;;;;;16.40;93.67;100599.12;105509;1260;60448;-74
2023/09/16 01:25:46;;;;;;;14.70;11.60;;;;;;;16.41;93.56;100599.39;105404;1258;74389;-74
2023/09/16 01:28:13;;;;;;;17.10;12.90;;;;;;;16.43;93.79;100605.35;105315;1256;70381;-75
2023/09/16 01:30:46;;;;;;;16.50;13.60;;;;;;;16.41;94.02;100606.92;105469;1256;71839;-73
2023/09/16 01:33:16;;;;;;;;;;;;;;;16.38;94.24;100607.92;105988;1255;60515;-72
2023/09/16 01:35:45;;;;;;;16.50;12.30;;;;;;;16.42;94.12;100606.08;105613;1258;60419;-72
2023/09/16 01:38:13;;;;;;;18.10;13.30;;;;;;;16.44;94.31;100605.98;105625;1256;72599;-74
2023/09/16 01:40:40;;;;;;;20.00;15.30;;;;;;;16.43;94.34;100608.98;106124;1258;68781;-77
2023/09/16 01:43:08;;;;;;;18.80;13.00;;;;;;;16.39;94.75;100607.85;106052;1258;71825;-74
2023/09/16 01:45:43;;;;;;;19.40;13.20;;;;;;;16.38;94.91;100612.39;106751;1254;60681;-76
2023/09/16 01:48:11;;;;;;;16.30;13.50;;;;;;;16.45;94.87;100612.11;106779;1254;60977;-72
2023/09/16 01:50:38;;;;;;;19.90;13.70;;;;;;;16.48;94.72;100611.36;105939;1254;72903;-74
2023/09/16 01:53:07;;;;;;;21.30;14.70;;;;;;;16.43;94.56;100612.37;106141;1254;70467;-73
2023/09/16 01:55:35;;;;;;;26.20;16.40;;;;;;;16.36;94.72;100615.16;105718;1256;71141;-75
2023/09/16 01:58:02;;;;;;;20.30;14.00;;;;;;;16.38;94.82;100614.06;105744;1256;60791;-73
2023/09/16 02:00:30;;;;;;;23.30;15.00;;;;;;;16.41;94.88;100615.27;105424;1259;60503;-73
2023/09/16 02:02:58;;;;;;;20.50;14.70;;;;;;;16.41;95.13;100617.08;105705;1256;73782;-73
2023/09/16 02:05:26;;;;;;;20.40;15.10;;;;;;;16.36;95.26;100618.58;105649;1257;70521;-72
2023/09/16 02:07:54;;;;;;;24.80;16.40;;;;;;;16.35;95.40;100619.23;105510;1258;72749;-74
2023/09/16 02:10:21;;;;;;;24.00;16.10;;;;;;;16.38;94.94;100626.15;105172;1261;60567;-74
2023/09/16 02:12:49;;;;;;;25.00;16.10;;;;;;;16.38;95.02;100627.81;105382;1258;60438;-75
2023/09/16 02:15:17;;;;;;;27.60;17.50;;;;;;;16.35;95.44;100629.38;105592;1256;73848;-74
2023/09/16 02:17:45;;;;;;;23.00;15.40;;;;;;;16.31;95.35;100628.38;105658;1260;69375;-75
2023/09/16 02:20:12;;;;;;;23.50;15.70;;;;;;;16.33;95.31;100629.96;106941;1256;72585;-75
2023/09/16 02:22:40;;;;;;;24.90;16.10;;;;;;;16.38;95.35;100628.21;105485;1256;61038;-74
2023/09/16 02:25:09;;;;;;;24.70;16.20;;;;;;;16.36;95.48;100627.79;106170;1256;60479;-73
2023/09/16 02:27:36;;;;;;;24.10;16.60;;;;;;;16.31;95.63;100629.19;105982;1258;73871;-74
2023/09/16 02:30:04;;;;;;;22.50;15.00;;;;;;;16.31;95.40;100629.73;105930;1256;69992;-73
2023/09/16 02:32:32;;;;;;;22.90;17.10;;;;;;;16.33;95.42;100631.81;105326;1256;72416;-75
2023/09/16 02:34:59;;;;;;;21.30;16.00;;;;;;;16.30;95.58;100633.13;105854;1256;60512;-73
2023/09/16 02:37:27;;;;;;;24.90;17.40;;;;;;;16.25;95.97;100636.16;105916;1254;60673;-74
2023/09/16 02:39:54;;;;;;;24.40;15.40;;;;;;;16.22;96.43;100635.29;105985;1258;73063;-73
2023/09/16 02:42:22;;;;;;;24.00;16.90;;;;;;;16.26;96.18;100635.84;105439;1260;68982;-74
2023/09/16 02:44:49;;;;;;;24.30;16.70;;;;;;;16.28;95.86;100637.86;106348;1254;72506;-73
2023/09/16 02:47:17;;;;;;;26.50;17.10;;;;;;;16.26;95.95;100639.98;108632;1254;59023;-72
2023/09/16 02:49:44;;;;;;;23.40;16.60;;;;;;;16.23;96.27;100637.52;108475;1256;58749;-74
2023/09/16 02:52:12;;;;;;;24.80;15.70;;;;;;;16.22;95.98;100640.77;108455;1255;72444;-72
2023/09/16 02:54:40;;;;;;;20.30;16.30;;;;;;;16.28;95.78;100642.64;106222;1260;68828;-73
2023/09/16 02:57:07;;;;;;;21.90;16.00;;;;;;;16.34;95.62;100641.56;105465;1256;73020;-72
2023/09/16 02:59:35;;;;;;;19.70;15.40;;;;;;;16.36;95.57;100645.56;107458;1255;60448;-73
2023/09/16 03:02:03;;;;;;;21.50;15.40;;;;;;;16.36;95.61;100644.33;108884;1254;58800;-73
2023/09/16 03:04:30;;;;;;;20.00;15.50;;;;;;;16.37;95.44;100646.12;107382;1258;73947;-74
2023/09/16 03:06:58;;;;;;;19.30;15.10;;;;;;;16.43;95.13;100643.48;105462;1261;69554;-71
2023/09/16 03:09:26;;;;;;;21.50;15.30;;;;;;;16.46;95.05;100648.02;105784;1258;71530;-74
2023/09/16 03:11:53;;;;;;;19.00;15.40;;;;;;;16.47;95.20;100651.40;105752;1256;60448;-74
2023/09/16 03:14:20;;;;;;;19.30;14.60;;;;;;;16.44;95.25;100650.95;105398;1256;60397;-74
2023/09/16 03:16:48;;;;;;;17.90;14.00;;;;;;;16.50;94.93;100655.09;105427;1258;72824;-75
2023/09/16 03:19:17;;;;;;;17.80;14.90;;;;;;;16.54;94.66;100658.08;105751;1259;68159;-75
2023/09/16 03:21:45;;;;;;;16.80;14.10;;;;;;;16.54;94.61;100661.66;105777;1256;72703;-73
2023/09/16 03:24:13;;;;;;;17.50;14.30;;;;;;;16.52;94.72;100663.83;105790;1257;61669;-74
2023/09/16 03:26:40;;;;;;;16.00;14.40;;;;;;;16.58;94.37;100666.00;105684;1260;60752;-73
2023/09/16 03:29:08;;;;;;;16.90;13.90;;;;;;;16.63;94.08;100668.89;106324;1258;74167;-74
2023/09/16 03:31:35;;;;;;;16.60;14.50;;;;;;;16.63;93.91;100675.00;106671;1257;68760;-74
2023/09/16 03:34:07;;;;;;;14.60;13.00;;;;;;;16.60;93.64;100675.38;106315;1256;73027;-75
2023/09/16 03:36:34;;;;;;;15.40;13.80;;;;;;;16.62;93.31;100678.77;105949;1255;60594;-74
2023/09/16 03:39:03;;;;;;;16.10;13.40;;;;;;;16.62;93.16;100680.17;105764;1256;60589;-73
2023/09/16 03:41:30;;;;;;;15.50;13.80;;;;;;;16.57;93.39;100680.35;105732;1261;74287;-73
2023/09/16 03:43:59;;;;;;;15.30;13.80;;;;;;;16.53;93.53;100677.15;105799;1260;68327;-74
2023/09/16 03:46:27;;;;;;;18.20;13.30;;;;;;;16.55;93.33;100678.17;105741;1258;72505;-72
2023/09/16 03:48:57;;;;;;;15.70;12.90;;;;;;;16.58;93.25;100682.96;105924;1256;60445;-74
2023/09/16 03:51:26;;;;;;;17.10;14.20;;;;;;;16.57;93.45;100683.73;105797;1261;60472;-74
2023/09/16 03:53:54;;;;;;;15.30;13.80;;;;;;;16.55;93.55;100684.71;105682;1258;73905;-73
2023/09/16 03:56:22;;;;;;;14.80;13.20;;;;;;;16.60;93.34;100687.20;106184;1255;69045;-74
2023/09/16 03:58:50;;;;;;;15.00;13.40;;;;;;;16.62;93.02;100690.33;106106;1259;71492;-71
2023/09/16 04:01:21;;;;;;;15.40;13.80;;;;;;;16.59;93.19;100691.73;106328;1256;60476;-74
2023/09/16 04:03:49;;;;;;;14.50;13.20;;;;;;;16.56;93.27;100693.25;106344;1258;60356;-73
2023/09/16 04:06:17;;;;;;;16.30;13.60;;;;;;;16.60;93.05;100693.64;105475;1261;72568;-73
2023/09/16 04:08:45;;;;;;;17.50;14.40;;;;;;;16.63;93.06;100691.70;106274;1255;68646;-74
2023/09/16 04:11:13;;;;;;;16.70;15.00;;;;;;;16.62;93.09;100692.31;105728;1260;72529;-75
2023/09/16 04:13:40;;;;;;;15.00;13.50;;;;;;;16.59;93.28;100694.50;105768;1256;60429;-74
2023/09/16 04:16:08;;;;;;;15.20;13.50;;;;;;;16.61;93.00;100696.14;105888;1261;60427;-74
2023/09/16 04:18:35;;;;;;;14.10;12.60;;;;;;;16.67;93.05;100701.42;105471;1253;72661;-74
2023/09/16 04:21:03;;;;;;;15.10;13.60;;;;;;;16.66;93.20;100700.17;105426;1253;70429;-74
2023/09/16 04:23:31;;;;;;;14.40;13.00;;;;;;;16.63;93.08;100701.52;105905;1256;72858;-75
2023/09/16 04:26:02;;;;;;;14.50;13.10;;;;;;;16.63;92.77;100703.43;105406;1256;60785;-74
2023/09/16 04:28:29;;;;;;;23.90;14.40;;;;;;;16.67;93.07;100704.03;105596;1256;60541;-73
2023/09/16 04:30:58;;;;;;;15.60;14.10;;;;;;;16.65;92.93;100705.02;105357;1257;73590;-73
2023/09/16 04:33:29;;;;;;;15.00;13.60;;;;;;;16.58;92.60;100708.59;105194;1259;69994;-72
2023/09/16 04:35:57;;;;;;;16.10;14.40;;;;;;;16.56;92.63;100709.36;105732;1253;72267;-75
2023/09/16 04:38:25;;;;;;;15.10;13.60;;;;;;;16.58;92.82;100709.27;105957;1258;60553;-74
2023/09/16 04:40:56;;;;;;;17.00;15.20;;;;;;;16.53;92.92;100713.90;105893;1259;60445;-75
2023/09/16 04:43:25;;;;;;;16.90;15.20;;;;;;;16.49;93.04;100712.77;106831;1254;74281;-73
2023/09/16 04:45:54;;;;;;;16.60;15.00;;;;;;;16.52;92.81;100714.77;107224;1260;68726;-74
2023/09/16 04:48:43;;;;;;;17.90;16.20;;;;;;;16.58;92.65;100714.08;106102;1256;72394;-73
2023/09/16 04:51:10;;;;;;;18.30;16.20;;;;;;;16.55;92.87;100713.67;105938;1256;60466;-73
2023/09/16 04:53:38;;;;;;;17.70;15.90;;;;;;;16.56;93.15;100717.69;105702;1256;60613;-73
2023/09/16 04:56:05;;;;;;;18.00;16.20;;;;;;;16.63;92.97;100715.20;105464;1258;73835;-75
2023/09/16 04:58:36;;;;;;;18.30;16.30;;;;;;;16.70;92.65;100717.94;105912;1254;70136;-73
2023/09/16 05:01:05;;;;;;;18.40;16.60;;;;;;;16.72;92.83;100719.36;105928;1256;70443;-74
2023/09/16 05:03:33;;;;;;;18.20;15.90;;;;;;;16.75;93.14;100718.88;105400;1258;60879;-73
2023/09/16 05:06:01;;;;;;;17.30;15.60;;;;;;;16.82;92.73;100721.92;105864;1252;60356;-72
2023/09/16 05:08:31;;;;;;;18.50;16.20;;;;;;;16.90;92.40;100725.44;105699;1253;73977;-75
2023/09/16 05:10:59;;;;;;;18.10;16.20;;;;;;;16.90;91.84;100726.16;105872;1258;70109;-74
2023/09/16 05:13:29;;;;;;;17.90;16.00;;;;;;;16.86;91.97;100726.83;105479;1258;70519;-73
2023/09/16 05:15:57;;;;;;;17.00;15.30;;;;;;;16.93;92.11;100726.61;105459;1253;60543;-73
2023/09/16 05:18:25;;;;;;;19.30;17.40;;;;;;;16.99;91.79;100727.45;105578;1260;60303;-74
2023/09/16 05:20:53;;;;;;;19.50;17.40;;;;;;;17.00;91.94;100728.73;105672;1253;73000;-74
2023/09/16 05:23:23;;;;;;;20.00;16.60;;;;;;;16.99;91.92;100733.02;105749;1253;70810;-74
2023/09/16 05:25:51;;;;;;;18.60;16.70;;;;;;;17.06;91.98;100735.88;105725;1256;72735;-75
2023/09/16 05:28:32;;;;;;;18.60;16.50;;;;;;;17.17;91.54;100740.77;105826;1256;60463;-73
2023/09/16 05:31:03;;;;;;;18.90;16.20;;;;;;;17.20;91.22;100741.31;105717;1258;60512;-75
2023/09/16 05:33:34;;;;;;;18.10;16.20;;;;;;;17.20;90.74;100737.64;105559;1261;73958;-73
2023/09/16 05:36:02;;;;;;;17.10;15.40;;;;;;;17.23;89.97;100743.54;105808;1259;69014;-74
2023/09/16 05:38:29;;;;;;;18.60;16.70;;;;;;;17.26;89.75;100746.67;105776;1256;72697;-72
2023/09/16 05:40:57;;;;;;;18.90;17.00;;;;;;;17.27;89.99;100749.38;105712;1254;60513;-75
2023/09/16 05:43:25;;;;;;;20.40;16.50;;;;;;;17.28;90.03;100748.56;105850;1261;60455;-74
2023/09/16 05:45:52;;;;;;;17.40;15.60;;;;;;;17.29;89.76;100751.88;105649;1257;73939;-73
2023/09/16 05:48:21;;;;;;;18.40;16.60;;;;;;;17.35;89.66;100753.31;105495;1260;70098;-74
2023/09/16 05:50:58;;;;;;;19.10;17.20;;;;;;;17.41;89.63;100755.49;106637;1254;71034;-73
2023/09/16 05:53:27;;;;;;;19.90;17.20;;;;;;;17.43;89.91;100755.27;108793;1255;58807;-76
2023/09/16 05:56:04;;;;;;;19.50;16.20;;;;;;;17.45;89.93;100755.70;105671;1256;60344;-75
2023/09/16 05:58:35;;;;;;;19.20;16.10;;;;;;;17.56;89.62;100757.73;105560;1255;73857;-74
2023/09/16 06:01:03;;;;;;;18.50;16.60;;;;;;;17.64;89.29;100757.33;105683;1255;69373;-75
2023/09/16 06:03:31;;;;;;;19.60;17.60;;;;;;;17.65;89.22;100759.30;105611;1256;71872;-74
2023/09/16 06:05:59;;;;;;;20.30;18.30;;;;;;;17.64;89.31;100754.81;105611;1256;60589;-74
2023/09/16 06:08:26;;;;;;;21.20;16.80;;;;;;;17.67;89.24;100755.87;105598;1256;60579;-74
2023/09/16 06:10:55;;;;;;;18.20;16.30;;;;;;;17.77;88.98;100755.35;105928;1255;72736;-76
2023/09/16 06:13:24;;;;;;;19.80;17.50;;;;;;;17.85;88.71;100755.77;106353;1255;68902;-74
2023/09/16 06:15:53;;;;;;;19.10;17.10;;;;;;;17.88;88.64;100757.36;106872;1260;71684;-74
2023/09/16 06:18:23;;;;;;;17.50;15.70;;;;;;;17.91;88.38;100762.40;106675;1255;61847;-76
2023/09/16 06:20:50;;;;;;;17.90;16.00;;;;;;;17.99;87.83;100766.55;105625;1260;60529;-74
2023/09/16 06:23:18;;;;;;;18.80;16.90;;;;;;;18.07;87.77;100767.39;105803;1260;73838;-73
2023/09/16 06:25:47;;;;;;;19.80;17.90;;;;;;;18.12;88.07;100767.36;105884;1261;69514;-74
2023/09/16 06:28:14;;;;;;;19.00;16.90;;;;;;;18.14;87.95;100768.09;105774;1256;71879;-74
2023/09/16 06:30:42;;;;;;;18.20;16.30;;;;;;;18.18;87.52;100769.73;105800;1261;60417;-75
2023/09/16 06:33:11;;;;;;;18.80;16.80;;;;;;;18.27;86.79;100772.92;105766;1261;60385;-73
2023/09/16 06:35:38;;;;;;;19.50;16.10;;;;;;;18.37;86.50;100769.94;105887;1253;72581;-74
2023/09/16 06:38:06;;;;;;;17.80;16.10;;;;;;;18.40;85.90;100771.34;105831;1256;70412;-74
2023/09/16 06:40:33;;;;;;;17.30;15.60;;;;;;;18.42;85.09;100774.65;105844;1256;71424;-74
2023/09/16 06:43:01;;;;;;;17.80;16.00;;;;;;;18.44;85.11;100778.86;105627;1260;60497;-73
2023/09/16 06:45:29;;;;;;;17.00;15.20;;;;;;;18.56;85.05;100784.91;105487;1260;61167;-72
2023/09/16 06:47:56;;;;;;;18.20;16.40;;;;;;;18.64;84.34;100784.39;105622;1253;73847;-74
2023/09/16 06:50:24;;;;;;;17.00;15.30;;;;;;;18.66;84.10;100785.73;105453;1254;68824;-73
2023/09/16 06:52:51;;;;;;;18.80;15.40;;;;;;;18.63;82.80;100785.66;105693;1258;71412;-75
2023/09/16 06:55:18;;;;;;;16.10;14.60;;;;;;;18.59;82.32;100785.72;105601;1256;60631;-75
2023/09/16 06:57:46;;;;;;;14.90;13.50;;;;;;;18.66;82.80;100789.20;105695;1256;60355;-74
2023/09/16 07:00:14;;;;;;;16.10;14.50;;;;;;;18.75;82.34;100790.59;105868;1257;73813;-77
2023/09/16 07:02:42;;;;;;;15.50;14.10;;;;;;;18.75;81.80;100788.23;105821;1258;69168;-75
2023/09/16 07:05:10;;;;;;;15.60;14.00;;;;;;;18.75;82.01;100789.88;105574;1257;72705;-74
2023/09/16 07:07:38;;;;;;;15.00;13.60;;;;;;;18.74;81.04;100792.55;105687;1259;60505;-74
2023/09/16 07:10:05;;;;;;;16.80;14.80;;;;;;;18.76;80.97;100793.80;105730;1258;60297;-75
2023/09/16 07:12:33;;;;;;;15.50;13.90;;;;;;;18.79;80.80;100794.02;105680;1253;71650;-75
2023/09/16 07:15:00;;;;;;;16.90;15.30;;;;;;;18.73;80.19;100798.34;105884;1255;70333;-74
2023/09/16 07:17:28;;;;;;;16.80;14.80;;;;;;;18.71;80.92;100800.45;105758;1254;72795;-75
2023/09/16 07:19:55;;;;;;;14.50;13.20;;;;;;;18.72;80.66;100800.72;106100;1253;60515;-73
2023/09/16 07:22:23;;;;;;;12.90;11.70;;;;;;;18.79;80.24;100808.94;106189;1258;60439;-74
2023/09/16 07:24:50;;;;;;;14.10;12.50;;;;;;;18.84;78.98;100807.05;106158;1259;74289;-74
2023/09/16 07:27:18;;;;;;;14.00;12.60;;;;;;;18.80;78.60;100810.52;105832;1253;70524;-75
2023/09/16 07:29:45;;;;;;;13.50;12.20;;;;;;;18.75;78.71;100809.48;105813;1257;72465;-73
2023/09/16 07:32:12;;;;;;;14.50;13.10;;;;;;;18.71;78.87;100806.89;105824;1254;60498;-74
2023/09/16 07:34:40;;;;;;;13.50;12.20;;;;;;;18.68;78.56;100811.73;105881;1256;60496;-74
2023/09/16 07:37:07;;;;;;;14.20;12.80;;;;;;;18.71;78.39;100815.45;106355;1257;73860;-74
2023/09/16 07:39:35;;;;;;;16.80;14.20;;;;;;;18.75;78.69;100812.83;106796;1259;68692;-75
2023/09/16 07:42:02;;;;;;;15.10;13.60;;;;;;;18.74;78.95;100815.31;106876;1253;70202;-74
2023/09/16 07:44:30;;;;;;;13.70;12.40;;;;;;;18.78;79.40;100816.05;105954;1256;60476;-75
2023/09/16 07:46:57;;;;;;;15.10;13.60;;;;;;;18.85;79.43;100819.06;106016;1254;60323;-76
2023/09/16 07:49:24;;;;;;;14.60;13.20;;;;;;;19.00;79.79;100817.35;105849;1253;73772;-74
2023/09/16 07:51:52;;;;;;;15.60;13.50;;;;;;;19.16;79.93;100817.77;105864;1260;68455;-75
2023/09/16 07:54:19;;;;;;;14.30;12.90;;;;;;;19.23;78.69;100819.44;105827;1259;72664;-76
2023/09/16 07:56:47;;;;;;;13.80;12.50;;;;;;;19.26;79.14;100819.74;105853;1259;61753;-75
2023/09/16 08:02:20;;;;;;;12.20;11.10;;;;;;;19.34;76.45;100822.48;102704;1292;600265;-74
2023/09/16 08:04:48;;;;;;;11.70;10.00;;;;;;;19.40;76.30;100820.30;105057;1270;61244;-73
2023/09/16 08:07:15;;;;;;;11.40;10.40;;;;;;;19.51;75.22;100824.45;105008;1268;60031;-73
2023/09/16 08:09:43;;;;;;;13.00;11.90;;;;;;;19.55;75.28;100826.48;104631;1267;71988;-74
2023/09/16 08:12:10;;;;;;;13.00;11.80;;;;;;;19.58;74.72;100826.06;104625;1269;69143;-74
2023/09/16 08:14:37;;;;;;;12.60;11.30;;;;;;;19.54;73.98;100824.94;104566;1271;71360;-73
2023/09/16 08:17:05;;;;;;;12.40;11.20;;;;;;;19.50;74.21;100824.41;104821;1265;166136;-77
2023/09/16 08:19:32;;;;;;;12.30;11.20;;;;;;;19.49;73.57;100825.95;105118;1268;59956;-77
2023/09/16 08:22:00;;;;;;;11.50;10.30;;;;;;;19.53;73.45;100825.51;105404;1263;70915;-78
2023/09/16 08:24:27;;;;;;;10.70;9.60;;;;;;;19.56;73.94;100826.61;106067;1263;67851;-76
2023/09/16 08:26:55;;;;;;;11.40;10.20;;;;;;;19.59;73.64;100831.45;106872;1264;71097;-76
2023/09/16 08:29:22;;;;;;;13.60;12.20;;;;;;;19.63;73.73;100829.32;106731;1268;59616;-75
2023/09/16 08:31:50;;;;;;;11.60;10.50;;;;;;;19.65;73.55;100831.52;105459;1264;59720;-76
2023/09/16 08:34:17;;;;;;;11.90;10.80;;;;;;;19.65;73.33;100833.72;106118;1253;73105;-78
2023/09/16 08:36:45;;;;;;;11.70;10.70;;;;;;;19.63;73.29;100832.97;106169;1256;69046;-77
2023/09/16 08:39:12;;;;;;;11.30;10.30;;;;;;;19.61;72.76;100838.56;105966;1256;72648;-77
2023/09/16 08:41:52;;;;;;;9.40;8.40;;;;;;;19.65;72.33;100837.33;105960;1256;60385;-78
2023/09/16 08:44:23;;;;;;;9.50;8.50;;;;;;;19.68;71.53;100843.81;105855;1251;60017;-76
2023/09/16 08:46:53;;;;;;;9.30;8.20;;;;;;;19.62;70.61;100844.33;105851;1253;73097;-80
2023/09/16 08:49:21;;;;;;;9.40;8.40;;;;;;;19.53;70.22;100845.40;106216;1251;70434;-79
2023/09/16 08:51:48;;;;;;;10.20;8.70;;;;;;;19.42;70.45;100849.13;106966;1251;72688;-79
2023/09/16 08:54:16;;;;;;;10.40;9.00;;;;;;;19.36;70.78;100849.92;106695;1257;59603;-77
2023/09/16 08:56:43;;;;;;;11.60;10.40;;;;;;;19.34;71.26;100852.48;106152;1253;59746;-81
2023/09/16 08:59:11;;;;;;;12.10;10.90;;;;;;;19.34;71.77;100852.70;106225;1252;73029;-81
2023/09/16 09:01:39;;;;;;;13.00;10.10;;;;;;;19.33;72.18;100848.83;106077;1251;70320;-79
2023/09/16 09:04:07;;;;;;;12.20;10.70;;;;;;;19.41;71.76;100848.71;105931;1253;72736;-75
2023/09/16 09:06:35;;;;;;;11.70;10.50;;;;;;;19.45;71.85;100849.97;105987;1253;60065;-75
2023/09/16 09:09:07;;;;;;;11.60;10.60;;;;;;;19.40;72.27;100856.16;106179;1251;59642;-76
2023/09/16 09:11:35;;;;;;;13.70;10.90;;;;;;;19.36;72.55;100855.06;105857;1251;71837;-77
2023/09/16 09:14:03;;;;;;;11.70;10.60;;;;;;;19.34;72.04;100853.48;105979;1251;70557;-77
2023/09/16 09:16:31;;;;;;;11.50;10.40;;;;;;;19.27;71.61;100856.67;105939;1251;72822;-76
2023/09/16 09:18:58;;;;;;;12.70;11.30;;;;;;;19.18;71.79;100856.41;105904;1251;60014;-76
2023/09/16 09:21:26;;;;;;;13.50;10.20;;;;;;;19.13;72.60;100859.85;106267;1251;60489;-76
2023/09/16 09:23:53;;;;;;;10.90;9.80;;;;;;;19.21;72.61;100858.37;106343;1251;73099;-78
2023/09/16 09:26:21;;;;;;;11.80;9.80;;;;;;;19.28;72.74;100859.16;106780;1251;69729;-80
2023/09/16 09:28:48;;;;;;;11.30;10.10;;;;;;;19.32;72.22;100858.23;106232;1257;71058;-74
2023/09/16 09:31:16;;;;;;;11.00;9.90;;;;;;;19.31;71.83;100858.25;107463;1251;60463;-79
2023/09/16 09:33:44;;;;;;;11.80;10.70;;;;;;;19.33;72.28;100860.69;108691;1251;58724;-77
2023/09/16 09:36:16;;;;;;;11.60;10.50;;;;;;;19.37;72.44;100861.45;107423;1251;73027;-77
2023/09/16 09:38:44;;;;;;;13.60;11.30;;;;;;;19.44;72.64;100859.66;109298;1251;69320;-78
2023/09/16 09:41:12;;;;;;;12.20;11.00;;;;;;;19.51;72.07;100862.86;107324;1253;71210;-78
2023/09/16 09:43:40;;;;;;;11.50;10.20;;;;;;;19.64;71.71;100856.36;105941;1258;60715;-78
2023/09/16 09:46:07;;;;;;;12.00;10.20;;;;;;;19.75;71.53;100854.73;105913;1251;59887;-79
2023/09/16 09:48:36;;;;;;;12.30;11.10;;;;;;;19.77;71.15;100850.14;106231;1251;71789;-78
2023/09/16 09:51:08;;;;;;;11.70;10.60;;;;;;;19.73;71.09;100851.44;107696;1251;68563;-80
2023/09/16 09:53:37;;;;;;;13.10;11.30;;;;;;;19.71;71.24;100849.45;108639;1253;71388;-80
2023/09/16 09:56:04;;;;;;;11.60;10.40;;;;;;;19.74;71.45;100851.25;107266;1253;59539;-80
2023/09/16 09:58:32;;;;;;;12.50;11.20;;;;;;;19.80;71.54;100851.19;106628;1251;59338;-81
2023/09/16 10:01:00;;;;;;;12.00;10.80;;;;;;;19.92;71.27;100849.90;106827;1251;71397;-81
2023/09/16 10:03:27;;;;;;;11.50;10.30;;;;;;;20.17;71.51;100851.55;106037;1251;68617;-81
2023/09/16 10:05:58;;;;;;;12.70;11.50;;;;;;;20.48;70.84;100850.89;106892;1257;71450;-82
2023/09/16 10:08:27;;;;;;;13.10;11.20;;;;;;;20.74;69.27;100850.97;107441;1256;59164;-81
2023/09/16 10:10:55;;;;;;;13.10;11.80;;;;;;;20.89;67.96;100851.26;107136;1253;59561;-78
2023/09/16 10:13:22;;;;;;;12.20;11.00;;;;;;;21.02;69.27;100845.00;106126;1251;72153;-79
2023/09/16 10:15:50;;;;;;;12.00;10.90;;;;;;;21.15;68.51;100840.99;106066;1253;68698;-79
2023/09/16 10:18:17;;;;;;;13.30;11.90;;;;;;;21.29;68.58;100842.00;105949;1256;71753;-77
2023/09/16 10:20:45;;;;;;;12.80;11.50;;;;;;;21.41;67.95;100841.30;105918;1251;60118;-76
2023/09/16 10:23:12;;;;;;;13.30;11.50;;;;;;;21.46;68.19;100837.90;105848;1258;59744;-75
2023/09/16 10:25:40;;;;;;;11.70;10.60;;;;;;;21.50;67.23;100841.17;105651;1254;73540;-77
2023/09/16 10:28:08;;;;;;;12.70;11.00;;;;;;;21.43;66.03;100845.55;106332;1251;68812;-76
2023/09/16 10:30:37;;;;;;;12.90;11.60;;;;;;;21.25;65.95;100846.38;105963;1252;71385;-76
2023/09/16 10:33:08;;;;;;;13.30;12.00;;;;;;;21.09;66.64;100849.61;105986;1257;59580;-78
2023/09/16 10:35:40;;;;;;;12.50;11.00;;;;;;;20.97;66.76;100849.62;106096;1251;60053;-76
2023/09/16 10:38:09;;;;;;;14.50;13.10;;;;;;;20.82;66.86;100850.98;106515;1253;73049;-76
2023/09/16 10:40:38;;;;;;;14.50;13.00;;;;;;;20.69;67.09;100845.79;106539;1251;72092;-75
2023/09/16 10:43:05;;;;;;;14.30;13.00;;;;;;;20.57;67.54;100847.95;106000;1252;72200;-76
2023/09/16 10:45:33;;;;;;;13.20;12.00;;;;;;;20.49;67.86;100845.91;105967;1252;60052;-78
2023/09/16 10:48:01;;;;;;;12.90;11.60;;;;;;;20.41;68.57;100845.02;106177;1251;60017;-76
2023/09/16 10:50:35;;;;;;;12.50;11.30;;;;;;;20.45;68.54;100841.01;106269;1256;73106;-76
2023/09/16 10:53:16;;;;;;;12.70;11.50;;;;;;;20.47;68.89;100841.09;106016;1257;70131;-78
2023/09/16 10:55:47;;;;;;;13.20;11.80;;;;;;;20.47;68.90;100841.75;105940;1251;72703;-76
2023/09/16 10:58:23;;;;;;;13.10;11.80;;;;;;;20.50;68.88;100841.27;105979;1253;59670;-76
2023/09/16 11:00:53;;;;;;;14.30;11.70;;;;;;;20.54;67.87;100842.09;106177;1253;60001;-77
2023/09/16 11:03:28;;;;;;;13.20;12.00;;;;;;;20.58;67.98;100842.77;106006;1251;72070;-76
2023/09/16 11:05:57;;;;;;;13.20;11.90;;;;;;;20.68;67.86;100843.54;106280;1253;70474;-77
2023/09/16 11:08:25;;;;;;;13.30;11.40;;;;;;;20.84;67.32;100841.62;107316;1251;72691;-77
2023/09/16 11:10:53;;;;;;;12.80;11.50;;;;;;;21.13;67.85;100837.75;106080;1256;59667;-77